sensor_id;sensor_type;location;lat;lon;timestamp;temperature;humidity
6948;DHT22;3513;47.664;9.162;2022-12-22T00:02:25;6.30;99.90
6948;DHT22;3513;47.664;9.162;2022-12-22T00:05:18;6.30;99.90
6948;DHT22;3513;47.664;9.162;2022-12-22T00:08:03;6.40;99.90
6948;DHT22;3513;47.664;9.162;2022-12-22T00:10:47;6.30;99.90
6948;DHT22;3513;47.664;9.162;2022-12-22T00:13:32;6.40;99.90
6948;DHT22;3513;47.664;9.162;2022-12-22T00:16:16;6.50;99.90
6948;DHT22;3513;47.664;9.162;2022-12-22T00:19:01;6.50;99.90
6948;DHT22;3513;47.664;9.162;2022-12-22T00:21:45;8.30;99.90
6948;DHT22;3513;47.664;9.162;2022-12-22T00:24:29;6.60;99.90
6948;DHT22;3513;47.664;9.162;2022-12-22T00:27:26;6.70;99.90
6948;DHT22;3513;47.664;9.162;2022-12-22T00:30:14;6.60;99.90
6948;DHT22;3513;47.664;9.162;2022-12-22T00:33:00;6.50;99.90
6948;DHT22;3513;47.664;9.162;2022-12-22T00:35:46;6.60;99.90
6948;DHT22;3513;47.664;9.162;2022-12-22T00:38:30;6.60;99.90
6948;DHT22;3513;47.664;9.162;2022-12-22T00:41:14;6.60;99.90
6948;DHT22;3513;47.664;9.162;2022-12-22T00:43:58;6.60;99.90
6948;DHT22;3513;47.664;9.162;2022-12-22T00:46:43;6.70;99.90
6948;DHT22;3513;47.664;9.162;2022-12-22T00:49:29;6.70;99.90
6948;DHT22;3513;47.664;9.162;2022-12-22T00:52:15;6.90;99.90
6948;DHT22;3513;47.664;9.162;2022-12-22T00:55:00;7.10;99.90
6948;DHT22;3513;47.664;9.162;2022-12-22T00:57:44;7.20;99.90
6948;DHT22;3513;47.664;9.162;2022-12-22T01:00:29;7.30;99.90
6948;DHT22;3513;47.664;9.162;2022-12-22T01:03:13;7.30;99.90
6948;DHT22;3513;47.664;9.162;2022-12-22T01:05:59;7.40;99.90
6948;DHT22;3513;47.664;9.162;2022-12-22T01:08:44;7.40;99.90
6948;DHT22;3513;47.664;9.162;2022-12-22T01:11:29;7.50;99.90
6948;DHT22;3513;47.664;9.162;2022-12-22T01:14:14;7.60;99.90
6948;DHT22;3513;47.664;9.162;2022-12-22T01:16:59;7.50;99.90
6948;DHT22;3513;47.664;9.162;2022-12-22T01:19:44;7.50;99.90
6948;DHT22;3513;47.664;9.162;2022-12-22T01:22:28;7.50;99.90
6948;DHT22;3513;47.664;9.162;2022-12-22T01:25:16;7.60;99.90
6948;DHT22;3513;47.664;9.162;2022-12-22T01:28:01;7.70;99.90
6948;DHT22;3513;47.664;9.162;2022-12-22T01:30:46;7.80;99.90
6948;DHT22;3513;47.664;9.162;2022-12-22T01:33:31;8.00;99.90
6948;DHT22;3513;47.664;9.162;2022-12-22T01:36:15;8.10;99.90
6948;DHT22;3513;47.664;9.162;2022-12-22T01:39:00;8.30;99.90
6948;DHT22;3513;47.664;9.162;2022-12-22T01:41:45;8.50;99.90
6948;DHT22;3513;47.664;9.162;2022-12-22T01:44:30;8.70;99.90
6948;DHT22;3513;47.664;9.162;2022-12-22T01:50:25;9.10;99.90
6948;DHT22;3513;47.664;9.162;2022-12-22T01:53:14;9.20;99.90
6948;DHT22;3513;47.664;9.162;2022-12-22T01:55:59;9.30;99.90
6948;DHT22;3513;47.664;9.162;2022-12-22T01:58:48;9.30;99.90
6948;DHT22;3513;47.664;9.162;2022-12-22T02:01:34;9.30;99.90
6948;DHT22;3513;47.664;9.162;2022-12-22T02:04:21;9.20;99.90
6948;DHT22;3513;47.664;9.162;2022-12-22T02:07:18;9.50;99.90
6948;DHT22;3513;47.664;9.162;2022-12-22T02:16:22;9.20;99.90
6948;DHT22;3513;47.664;9.162;2022-12-22T02:22:01;9.20;99.90
6948;DHT22;3513;47.664;9.162;2022-12-22T02:24:51;9.20;99.90
6948;DHT22;3513;47.664;9.162;2022-12-22T02:27:36;9.10;99.90
6948;DHT22;3513;47.664;9.162;2022-12-22T02:30:22;9.10;99.90
6948;DHT22;3513;47.664;9.162;2022-12-22T02:33:08;9.00;99.90
6948;DHT22;3513;47.664;9.162;2022-12-22T02:36:16;9.30;99.90
6948;DHT22;3513;47.664;9.162;2022-12-22T02:39:12;9.20;99.90
6948;DHT22;3513;47.664;9.162;2022-12-22T02:42:34;9.30;99.90
6948;DHT22;3513;47.664;9.162;2022-12-22T02:48:12;9.40;99.90
6948;DHT22;3513;47.664;9.162;2022-12-22T02:51:07;9.50;99.90
6948;DHT22;3513;47.664;9.162;2022-12-22T02:53:54;9.30;99.90
6948;DHT22;3513;47.664;9.162;2022-12-22T02:56:39;9.40;99.90
6948;DHT22;3513;47.664;9.162;2022-12-22T02:59:23;9.40;99.90
6948;DHT22;3513;47.664;9.162;2022-12-22T03:02:07;10.30;99.90
6948;DHT22;3513;47.664;9.162;2022-12-22T03:04:52;9.40;99.90
6948;DHT22;3513;47.664;9.162;2022-12-22T03:07:36;10.20;99.90
6948;DHT22;3513;47.664;9.162;2022-12-22T03:10:20;9.40;99.90
6948;DHT22;3513;47.664;9.162;2022-12-22T03:13:04;9.30;99.90
6948;DHT22;3513;47.664;9.162;2022-12-22T03:15:49;9.30;99.90
6948;DHT22;3513;47.664;9.162;2022-12-22T03:18:34;9.40;99.90
6948;DHT22;3513;47.664;9.162;2022-12-22T03:21:19;9.40;99.90
6948;DHT22;3513;47.664;9.162;2022-12-22T03:24:03;9.40;99.90
6948;DHT22;3513;47.664;9.162;2022-12-22T03:26:47;9.30;99.90
6948;DHT22;3513;47.664;9.162;2022-12-22T03:29:13;9.30;99.90
6948;DHT22;3513;47.664;9.162;2022-12-22T03:31:38;9.30;99.90
6948;DHT22;3513;47.664;9.162;2022-12-22T03:34:04;9.30;99.90
6948;DHT22;3513;47.664;9.162;2022-12-22T03:36:30;9.30;99.90
6948;DHT22;3513;47.664;9.162;2022-12-22T03:38:56;9.30;99.90
6948;DHT22;3513;47.664;9.162;2022-12-22T03:41:26;9.30;99.90
6948;DHT22;3513;47.664;9.162;2022-12-22T03:44:10;9.30;99.90
6948;DHT22;3513;47.664;9.162;2022-12-22T03:46:54;9.30;99.90
6948;DHT22;3513;47.664;9.162;2022-12-22T03:49:20;9.30;99.90
6948;DHT22;3513;47.664;9.162;2022-12-22T03:51:49;9.20;99.90
6948;DHT22;3513;47.664;9.162;2022-12-22T03:54:17;9.30;99.90
6948;DHT22;3513;47.664;9.162;2022-12-22T03:56:43;9.20;99.90
6948;DHT22;3513;47.664;9.162;2022-12-22T03:59:10;9.20;99.90
6948;DHT22;3513;47.664;9.162;2022-12-22T04:01:38;9.10;99.90
6948;DHT22;3513;47.664;9.162;2022-12-22T04:04:04;9.10;99.90
6948;DHT22;3513;47.664;9.162;2022-12-22T04:06:30;9.00;99.90
6948;DHT22;3513;47.664;9.162;2022-12-22T04:08:55;8.90;99.90
6948;DHT22;3513;47.664;9.162;2022-12-22T04:11:21;8.80;99.90
6948;DHT22;3513;47.664;9.162;2022-12-22T04:14:06;8.80;99.90
6948;DHT22;3513;47.664;9.162;2022-12-22T04:16:32;8.70;99.90
6948;DHT22;3513;47.664;9.162;2022-12-22T04:18:58;8.70;99.90
6948;DHT22;3513;47.664;9.162;2022-12-22T04:21:24;8.80;99.90
6948;DHT22;3513;47.664;9.162;2022-12-22T04:23:49;8.80;99.90
6948;DHT22;3513;47.664;9.162;2022-12-22T04:26:22;8.80;99.90
6948;DHT22;3513;47.664;9.162;2022-12-22T04:28:49;8.80;99.90
6948;DHT22;3513;47.664;9.162;2022-12-22T04:31:15;8.80;99.90
6948;DHT22;3513;47.664;9.162;2022-12-22T04:33:40;9.20;99.90
6948;DHT22;3513;47.664;9.162;2022-12-22T04:36:07;8.90;99.90
6948;DHT22;3513;47.664;9.162;2022-12-22T04:38:33;8.90;99.90
6948;DHT22;3513;47.664;9.162;2022-12-22T04:40:59;8.90;99.90
6948;DHT22;3513;47.664;9.162;2022-12-22T04:43:25;10.30;99.90
6948;DHT22;3513;47.664;9.162;2022-12-22T04:45:54;8.90;99.90
6948;DHT22;3513;47.664;9.162;2022-12-22T04:48:21;8.90;99.90
6948;DHT22;3513;47.664;9.162;2022-12-22T04:50:51;8.90;99.90
6948;DHT22;3513;47.664;9.162;2022-12-22T04:53:16;8.90;99.90
6948;DHT22;3513;47.664;9.162;2022-12-22T04:55:57;8.90;99.90
6948;DHT22;3513;47.664;9.162;2022-12-22T04:58:23;9.00;99.90
6948;DHT22;3513;47.664;9.162;2022-12-22T05:00:49;9.00;99.90
6948;DHT22;3513;47.664;9.162;2022-12-22T05:03:14;9.00;99.90
6948;DHT22;3513;47.664;9.162;2022-12-22T05:05:40;9.10;99.90
6948;DHT22;3513;47.664;9.162;2022-12-22T05:08:06;9.60;99.90
6948;DHT22;3513;47.664;9.162;2022-12-22T05:10:32;9.10;99.90
6948;DHT22;3513;47.664;9.162;2022-12-22T05:12:58;9.00;99.90
6948;DHT22;3513;47.664;9.162;2022-12-22T05:15:29;9.10;99.90
6948;DHT22;3513;47.664;9.162;2022-12-22T05:17:55;9.10;99.90
6948;DHT22;3513;47.664;9.162;2022-12-22T05:20:21;10.00;99.90
6948;DHT22;3513;47.664;9.162;2022-12-22T05:22:47;9.20;99.90
6948;DHT22;3513;47.664;9.162;2022-12-22T05:25:13;11.60;99.90
6948;DHT22;3513;47.664;9.162;2022-12-22T05:27:42;9.30;99.90
6948;DHT22;3513;47.664;9.162;2022-12-22T05:30:08;10.10;99.90
6948;DHT22;3513;47.664;9.162;2022-12-22T05:32:34;9.40;99.90
6948;DHT22;3513;47.664;9.162;2022-12-22T05:35:01;9.40;99.90
6948;DHT22;3513;47.664;9.162;2022-12-22T05:37:27;9.50;99.90
6948;DHT22;3513;47.664;9.162;2022-12-22T05:39:53;11.10;99.90
6948;DHT22;3513;47.664;9.162;2022-12-22T05:42:18;9.90;99.90
6948;DHT22;3513;47.664;9.162;2022-12-22T05:45:12;9.50;99.90
6948;DHT22;3513;47.664;9.162;2022-12-22T05:47:40;9.50;99.90
6948;DHT22;3513;47.664;9.162;2022-12-22T05:50:06;10.00;99.90
6948;DHT22;3513;47.664;9.162;2022-12-22T05:52:33;9.40;99.90
6948;DHT22;3513;47.664;9.162;2022-12-22T05:54:59;9.40;99.90
6948;DHT22;3513;47.664;9.162;2022-12-22T05:57:24;9.50;99.90
6948;DHT22;3513;47.664;9.162;2022-12-22T05:59:50;9.50;99.90
6948;DHT22;3513;47.664;9.162;2022-12-22T06:02:16;9.50;99.90
6948;DHT22;3513;47.664;9.162;2022-12-22T06:04:41;9.50;99.90
6948;DHT22;3513;47.664;9.162;2022-12-22T06:07:07;9.40;99.90
6948;DHT22;3513;47.664;9.162;2022-12-22T06:09:33;10.50;99.90
6948;DHT22;3513;47.664;9.162;2022-12-22T06:11:59;9.40;99.90
6948;DHT22;3513;47.664;9.162;2022-12-22T06:14:24;11.80;99.90
6948;DHT22;3513;47.664;9.162;2022-12-22T06:16:50;11.30;99.90
6948;DHT22;3513;47.664;9.162;2022-12-22T06:19:16;9.90;99.90
6948;DHT22;3513;47.664;9.162;2022-12-22T06:21:41;11.40;99.90
6948;DHT22;3513;47.664;9.162;2022-12-22T06:24:07;9.50;99.90
6948;DHT22;3513;47.664;9.162;2022-12-22T06:26:33;9.60;99.90
6948;DHT22;3513;47.664;9.162;2022-12-22T06:28:59;9.60;99.90
6948;DHT22;3513;47.664;9.162;2022-12-22T06:31:24;10.00;99.90
6948;DHT22;3513;47.664;9.162;2022-12-22T06:33:50;10.70;99.90
6948;DHT22;3513;47.664;9.162;2022-12-22T06:36:15;11.30;99.90
6948;DHT22;3513;47.664;9.162;2022-12-22T06:38:41;9.60;99.90
6948;DHT22;3513;47.664;9.162;2022-12-22T06:41:07;11.80;99.90
6948;DHT22;3513;47.664;9.162;2022-12-22T06:43:33;9.60;99.90
6948;DHT22;3513;47.664;9.162;2022-12-22T06:45:58;12.50;99.90
6948;DHT22;3513;47.664;9.162;2022-12-22T06:48:24;9.70;99.90
6948;DHT22;3513;47.664;9.162;2022-12-22T06:50:50;9.70;99.90
6948;DHT22;3513;47.664;9.162;2022-12-22T06:53:15;9.80;99.90
6948;DHT22;3513;47.664;9.162;2022-12-22T06:55:41;9.70;99.90
6948;DHT22;3513;47.664;9.162;2022-12-22T06:58:07;9.70;99.90
6948;DHT22;3513;47.664;9.162;2022-12-22T07:00:33;10.00;99.90
6948;DHT22;3513;47.664;9.162;2022-12-22T07:03:00;9.80;99.90
6948;DHT22;3513;47.664;9.162;2022-12-22T07:05:27;10.00;99.90
6948;DHT22;3513;47.664;9.162;2022-12-22T07:07:57;9.80;99.90
6948;DHT22;3513;47.664;9.162;2022-12-22T07:10:29;9.90;99.90
6948;DHT22;3513;47.664;9.162;2022-12-22T07:13:15;9.90;99.90
6948;DHT22;3513;47.664;9.162;2022-12-22T07:15:45;9.90;99.90
6948;DHT22;3513;47.664;9.162;2022-12-22T07:18:11;9.90;99.90
6948;DHT22;3513;47.664;9.162;2022-12-22T07:20:37;9.90;99.90
6948;DHT22;3513;47.664;9.162;2022-12-22T07:23:02;9.80;99.90
6948;DHT22;3513;47.664;9.162;2022-12-22T07:25:28;9.90;99.90
6948;DHT22;3513;47.664;9.162;2022-12-22T07:27:53;9.90;99.90
6948;DHT22;3513;47.664;9.162;2022-12-22T07:30:20;9.90;99.90
6948;DHT22;3513;47.664;9.162;2022-12-22T07:32:46;9.90;99.90
6948;DHT22;3513;47.664;9.162;2022-12-22T07:35:11;10.10;99.90
6948;DHT22;3513;47.664;9.162;2022-12-22T07:37:37;9.90;99.90
6948;DHT22;3513;47.664;9.162;2022-12-22T07:40:03;11.80;99.90
6948;DHT22;3513;47.664;9.162;2022-12-22T07:42:28;9.90;99.90
6948;DHT22;3513;47.664;9.162;2022-12-22T07:47:36;9.90;99.90
6948;DHT22;3513;47.664;9.162;2022-12-22T07:50:02;10.00;99.90
6948;DHT22;3513;47.664;9.162;2022-12-22T07:52:46;10.00;99.90
6948;DHT22;3513;47.664;9.162;2022-12-22T07:55:11;10.00;99.90
6948;DHT22;3513;47.664;9.162;2022-12-22T07:57:38;9.90;99.90
6948;DHT22;3513;47.664;9.162;2022-12-22T08:00:04;10.00;99.90
6948;DHT22;3513;47.664;9.162;2022-12-22T08:02:30;9.90;99.90
6948;DHT22;3513;47.664;9.162;2022-12-22T08:04:55;10.00;99.90
6948;DHT22;3513;47.664;9.162;2022-12-22T08:07:21;9.90;99.90
6948;DHT22;3513;47.664;9.162;2022-12-22T08:09:47;9.80;99.90
6948;DHT22;3513;47.664;9.162;2022-12-22T08:12:12;9.80;99.90
6948;DHT22;3513;47.664;9.162;2022-12-22T08:14:38;9.80;99.90
6948;DHT22;3513;47.664;9.162;2022-12-22T08:17:03;9.80;99.90
6948;DHT22;3513;47.664;9.162;2022-12-22T08:19:29;11.00;99.90
6948;DHT22;3513;47.664;9.162;2022-12-22T08:21:54;10.50;99.90
6948;DHT22;3513;47.664;9.162;2022-12-22T08:24:20;9.80;99.90
6948;DHT22;3513;47.664;9.162;2022-12-22T08:26:48;10.00;99.90
6948;DHT22;3513;47.664;9.162;2022-12-22T08:29:22;10.00;99.90
6948;DHT22;3513;47.664;9.162;2022-12-22T08:31:48;10.10;99.90
6948;DHT22;3513;47.664;9.162;2022-12-22T08:34:14;10.20;99.90
6948;DHT22;3513;47.664;9.162;2022-12-22T08:36:48;10.40;99.90
6948;DHT22;3513;47.664;9.162;2022-12-22T08:39:16;10.50;99.90
6948;DHT22;3513;47.664;9.162;2022-12-22T08:41:42;10.70;99.90
6948;DHT22;3513;47.664;9.162;2022-12-22T08:44:27;10.70;99.90
6948;DHT22;3513;47.664;9.162;2022-12-22T08:46:55;10.90;99.90
6948;DHT22;3513;47.664;9.162;2022-12-22T08:49:21;10.90;99.90
6948;DHT22;3513;47.664;9.162;2022-12-22T08:51:47;10.90;99.90
6948;DHT22;3513;47.664;9.162;2022-12-22T08:54:13;11.00;99.90
6948;DHT22;3513;47.664;9.162;2022-12-22T08:56:39;11.10;99.30
6948;DHT22;3513;47.664;9.162;2022-12-22T08:59:05;11.20;99.50
6948;DHT22;3513;47.664;9.162;2022-12-22T09:01:33;11.20;99.20
6948;DHT22;3513;47.664;9.162;2022-12-22T09:03:59;11.20;99.20
6948;DHT22;3513;47.664;9.162;2022-12-22T09:06:25;11.20;98.90
6948;DHT22;3513;47.664;9.162;2022-12-22T09:08:59;11.20;98.80
6948;DHT22;3513;47.664;9.162;2022-12-22T09:11:26;11.30;98.50
6948;DHT22;3513;47.664;9.162;2022-12-22T09:13:54;11.40;98.40
6948;DHT22;3513;47.664;9.162;2022-12-22T09:16:21;11.40;98.10
6948;DHT22;3513;47.664;9.162;2022-12-22T09:18:47;11.40;97.80
6948;DHT22;3513;47.664;9.162;2022-12-22T09:21:14;12.90;99.00
6948;DHT22;3513;47.664;9.162;2022-12-22T09:23:40;11.60;98.00
6948;DHT22;3513;47.664;9.162;2022-12-22T09:26:10;11.50;97.60
6948;DHT22;3513;47.664;9.162;2022-12-22T09:28:37;11.60;97.50
6948;DHT22;3513;47.664;9.162;2022-12-22T09:31:04;11.60;97.30
6948;DHT22;3513;47.664;9.162;2022-12-22T09:33:30;11.60;97.40
6948;DHT22;3513;47.664;9.162;2022-12-22T09:35:57;11.70;97.10
6948;DHT22;3513;47.664;9.162;2022-12-22T09:38:26;11.70;96.90
6948;DHT22;3513;47.664;9.162;2022-12-22T09:40:53;11.70;97.40
6948;DHT22;3513;47.664;9.162;2022-12-22T09:43:28;11.70;97.30
6948;DHT22;3513;47.664;9.162;2022-12-22T09:45:55;11.70;97.90
6948;DHT22;3513;47.664;9.162;2022-12-22T09:48:32;11.80;98.50
6948;DHT22;3513;47.664;9.162;2022-12-22T09:50:58;11.50;97.90
6948;DHT22;3513;47.664;9.162;2022-12-22T09:53:24;11.50;98.80
6948;DHT22;3513;47.664;9.162;2022-12-22T09:55:50;11.50;99.20
6948;DHT22;3513;47.664;9.162;2022-12-22T09:58:26;11.30;99.90
6948;DHT22;3513;47.664;9.162;2022-12-22T10:01:09;11.20;99.90
6948;DHT22;3513;47.664;9.162;2022-12-22T10:09:29;11.00;99.90
6948;DHT22;3513;47.664;9.162;2022-12-22T10:12:00;11.10;99.90
6948;DHT22;3513;47.664;9.162;2022-12-22T10:14:36;11.10;99.90
6948;DHT22;3513;47.664;9.162;2022-12-22T10:17:25;11.30;99.90
6948;DHT22;3513;47.664;9.162;2022-12-22T10:22:56;11.40;99.50
6948;DHT22;3513;47.664;9.162;2022-12-22T10:25:37;11.40;99.30
6948;DHT22;3513;47.664;9.162;2022-12-22T10:28:07;11.50;98.10
6948;DHT22;3513;47.664;9.162;2022-12-22T10:30:35;11.80;98.00
6948;DHT22;3513;47.664;9.162;2022-12-22T10:33:18;11.80;97.30
6948;DHT22;3513;47.664;9.162;2022-12-22T10:35:55;11.90;97.60
6948;DHT22;3513;47.664;9.162;2022-12-22T10:38:30;12.00;96.90
6948;DHT22;3513;47.664;9.162;2022-12-22T10:41:13;12.10;96.70
6948;DHT22;3513;47.664;9.162;2022-12-22T10:43:51;12.10;96.40
6948;DHT22;3513;47.664;9.162;2022-12-22T10:46:28;12.10;96.20
6948;DHT22;3513;47.664;9.162;2022-12-22T10:51:53;12.20;95.80
6948;DHT22;3513;47.664;9.162;2022-12-22T10:54:33;12.20;96.00
6948;DHT22;3513;47.664;9.162;2022-12-22T10:57:05;12.10;95.90
6948;DHT22;3513;47.664;9.162;2022-12-22T10:59:32;12.10;95.30
6948;DHT22;3513;47.664;9.162;2022-12-22T11:04:50;12.20;95.70
6948;DHT22;3513;47.664;9.162;2022-12-22T11:07:16;12.30;95.50
6948;DHT22;3513;47.664;9.162;2022-12-22T11:09:42;12.70;95.70
6948;DHT22;3513;47.664;9.162;2022-12-22T11:15:14;12.50;94.90
6948;DHT22;3513;47.664;9.162;2022-12-22T11:21:00;12.50;94.90
6948;DHT22;3513;47.664;9.162;2022-12-22T11:40:32;12.30;94.50
6948;DHT22;3513;47.664;9.162;2022-12-22T11:43:29;12.30;94.70
6948;DHT22;3513;47.664;9.162;2022-12-22T11:56:44;12.00;95.90
6948;DHT22;3513;47.664;9.162;2022-12-22T11:59:48;12.00;95.80
6948;DHT22;3513;47.664;9.162;2022-12-22T12:10:53;12.10;95.70
6948;DHT22;3513;47.664;9.162;2022-12-22T12:18:54;12.20;95.00
6948;DHT22;3513;47.664;9.162;2022-12-22T12:21:29;12.30;94.80
6948;DHT22;3513;47.664;9.162;2022-12-22T12:29:24;12.30;94.60
6948;DHT22;3513;47.664;9.162;2022-12-22T12:32:05;12.40;94.60
6948;DHT22;3513;47.664;9.162;2022-12-22T12:34:35;12.60;94.50
6948;DHT22;3513;47.664;9.162;2022-12-22T12:37:21;12.80;93.90
6948;DHT22;3513;47.664;9.162;2022-12-22T12:40:25;12.90;93.50
6948;DHT22;3513;47.664;9.162;2022-12-22T12:42:55;13.00;93.10
6948;DHT22;3513;47.664;9.162;2022-12-22T12:50:56;13.10;92.30
6948;DHT22;3513;47.664;9.162;2022-12-22T12:53:26;13.20;92.60
6948;DHT22;3513;47.664;9.162;2022-12-22T12:55:56;13.30;92.30
6948;DHT22;3513;47.664;9.162;2022-12-22T13:03:46;13.30;91.80
6948;DHT22;3513;47.664;9.162;2022-12-22T13:11:44;12.80;93.10
6948;DHT22;3513;47.664;9.162;2022-12-22T13:14:10;12.70;94.50
6948;DHT22;3513;47.664;9.162;2022-12-22T13:16:37;12.50;94.90
6948;DHT22;3513;47.664;9.162;2022-12-22T13:19:11;12.30;95.90
6948;DHT22;3513;47.664;9.162;2022-12-22T13:21:42;12.10;96.80
6948;DHT22;3513;47.664;9.162;2022-12-22T13:24:24;12.50;97.30
6948;DHT22;3513;47.664;9.162;2022-12-22T13:26:51;11.90;97.00
6948;DHT22;3513;47.664;9.162;2022-12-22T13:29:24;11.90;97.00
6948;DHT22;3513;47.664;9.162;2022-12-22T13:31:55;12.00;96.70
6948;DHT22;3513;47.664;9.162;2022-12-22T13:34:47;12.30;96.30
6948;DHT22;3513;47.664;9.162;2022-12-22T13:37:23;12.70;95.60
6948;DHT22;3513;47.664;9.162;2022-12-22T13:40:13;13.10;94.40
6948;DHT22;3513;47.664;9.162;2022-12-22T13:42:54;13.40;93.60
6948;DHT22;3513;47.664;9.162;2022-12-22T13:45:36;13.60;92.30
6948;DHT22;3513;47.664;9.162;2022-12-22T13:50:53;13.80;91.60
6948;DHT22;3513;47.664;9.162;2022-12-22T13:53:36;13.60;91.40
6948;DHT22;3513;47.664;9.162;2022-12-22T13:56:11;13.40;91.50
6948;DHT22;3513;47.664;9.162;2022-12-22T13:58:39;13.00;92.30
6948;DHT22;3513;47.664;9.162;2022-12-22T14:03:34;12.70;93.20
6948;DHT22;3513;47.664;9.162;2022-12-22T14:06:00;12.70;93.70
6948;DHT22;3513;47.664;9.162;2022-12-22T14:08:26;12.80;93.50
6948;DHT22;3513;47.664;9.162;2022-12-22T14:10:52;13.10;93.30
6948;DHT22;3513;47.664;9.162;2022-12-22T14:13:23;13.10;93.10
6948;DHT22;3513;47.664;9.162;2022-12-22T14:16:02;13.10;93.40
6948;DHT22;3513;47.664;9.162;2022-12-22T14:18:32;13.10;93.60
6948;DHT22;3513;47.664;9.162;2022-12-22T14:20:58;13.00;93.90
6948;DHT22;3513;47.664;9.162;2022-12-22T14:23:25;12.90;94.10
6948;DHT22;3513;47.664;9.162;2022-12-22T14:25:53;12.60;94.50
6948;DHT22;3513;47.664;9.162;2022-12-22T14:30:54;12.10;95.60
6948;DHT22;3513;47.664;9.162;2022-12-22T14:36:16;11.90;96.30
6948;DHT22;3513;47.664;9.162;2022-12-22T14:38:46;11.80;96.40
6948;DHT22;3513;47.664;9.162;2022-12-22T14:41:34;11.80;96.50
6948;DHT22;3513;47.664;9.162;2022-12-22T14:44:42;11.70;96.60
6948;DHT22;3513;47.664;9.162;2022-12-22T14:47:12;11.60;96.80
6948;DHT22;3513;47.664;9.162;2022-12-22T14:49:57;11.60;96.80
6948;DHT22;3513;47.664;9.162;2022-12-22T14:54:57;11.60;96.90
6948;DHT22;3513;47.664;9.162;2022-12-22T14:57:35;11.50;96.90
6948;DHT22;3513;47.664;9.162;2022-12-22T15:00:28;11.50;97.10
6948;DHT22;3513;47.664;9.162;2022-12-22T15:02:56;11.50;97.40
6948;DHT22;3513;47.664;9.162;2022-12-22T15:05:26;11.50;97.60
6948;DHT22;3513;47.664;9.162;2022-12-22T15:07:55;11.40;97.50
6948;DHT22;3513;47.664;9.162;2022-12-22T15:10:23;11.40;97.70
6948;DHT22;3513;47.664;9.162;2022-12-22T15:12:53;11.40;97.90
6948;DHT22;3513;47.664;9.162;2022-12-22T15:15:20;12.30;98.10
6948;DHT22;3513;47.664;9.162;2022-12-22T15:17:48;11.50;97.80
6948;DHT22;3513;47.664;9.162;2022-12-22T15:20:19;11.60;97.80
6948;DHT22;3513;47.664;9.162;2022-12-22T15:22:45;11.40;97.60
6948;DHT22;3513;47.664;9.162;2022-12-22T15:25:22;11.40;97.70
6948;DHT22;3513;47.664;9.162;2022-12-22T15:27:48;11.40;97.60
6948;DHT22;3513;47.664;9.162;2022-12-22T15:30:17;11.40;97.60
6948;DHT22;3513;47.664;9.162;2022-12-22T15:32:43;11.40;97.60
6948;DHT22;3513;47.664;9.162;2022-12-22T15:37:42;11.40;97.50
6948;DHT22;3513;47.664;9.162;2022-12-22T15:40:20;11.50;97.30
6948;DHT22;3513;47.664;9.162;2022-12-22T15:42:47;11.50;97.20
6948;DHT22;3513;47.664;9.162;2022-12-22T15:45:14;12.00;97.40
6948;DHT22;3513;47.664;9.162;2022-12-22T15:47:40;11.40;97.20
6948;DHT22;3513;47.664;9.162;2022-12-22T15:50:13;11.40;97.00
6948;DHT22;3513;47.664;9.162;2022-12-22T15:52:40;11.40;96.90
6948;DHT22;3513;47.664;9.162;2022-12-22T15:55:12;11.50;96.90
6948;DHT22;3513;47.664;9.162;2022-12-22T15:57:38;11.50;96.70
6948;DHT22;3513;47.664;9.162;2022-12-22T16:00:05;11.50;96.80
6948;DHT22;3513;47.664;9.162;2022-12-22T16:02:30;11.50;96.70
6948;DHT22;3513;47.664;9.162;2022-12-22T16:04:56;11.50;96.80
6948;DHT22;3513;47.664;9.162;2022-12-22T16:07:21;11.60;96.50
6948;DHT22;3513;47.664;9.162;2022-12-22T16:09:47;11.60;96.60
6948;DHT22;3513;47.664;9.162;2022-12-22T16:12:16;11.60;96.40
6948;DHT22;3513;47.664;9.162;2022-12-22T16:14:46;11.60;96.30
6948;DHT22;3513;47.664;9.162;2022-12-22T16:17:23;11.60;96.20
6948;DHT22;3513;47.664;9.162;2022-12-22T16:19:49;11.70;96.00
6948;DHT22;3513;47.664;9.162;2022-12-22T16:22:19;11.70;96.00
6948;DHT22;3513;47.664;9.162;2022-12-22T16:24:47;11.60;96.00
6948;DHT22;3513;47.664;9.162;2022-12-22T16:27:14;11.60;96.20
6948;DHT22;3513;47.664;9.162;2022-12-22T16:29:51;11.60;96.10
6948;DHT22;3513;47.664;9.162;2022-12-22T16:32:23;11.60;95.90
6948;DHT22;3513;47.664;9.162;2022-12-22T16:34:49;11.60;96.00
6948;DHT22;3513;47.664;9.162;2022-12-22T16:37:15;11.60;95.90
6948;DHT22;3513;47.664;9.162;2022-12-22T16:39:41;11.60;96.00
6948;DHT22;3513;47.664;9.162;2022-12-22T16:42:15;11.50;96.20
6948;DHT22;3513;47.664;9.162;2022-12-22T16:44:42;11.50;96.00
6948;DHT22;3513;47.664;9.162;2022-12-22T16:47:31;11.50;96.00
6948;DHT22;3513;47.664;9.162;2022-12-22T16:49:59;11.60;95.80
6948;DHT22;3513;47.664;9.162;2022-12-22T16:52:36;11.60;95.80
6948;DHT22;3513;47.664;9.162;2022-12-22T16:55:23;11.60;95.80
6948;DHT22;3513;47.664;9.162;2022-12-22T16:57:49;11.60;95.80
6948;DHT22;3513;47.664;9.162;2022-12-22T17:00:20;11.60;95.80
6948;DHT22;3513;47.664;9.162;2022-12-22T17:02:52;11.60;95.60
6948;DHT22;3513;47.664;9.162;2022-12-22T17:05:26;12.20;96.10
6948;DHT22;3513;47.664;9.162;2022-12-22T17:07:54;11.60;95.70
6948;DHT22;3513;47.664;9.162;2022-12-22T17:10:21;11.70;95.80
6948;DHT22;3513;47.664;9.162;2022-12-22T17:12:49;11.60;95.60
6948;DHT22;3513;47.664;9.162;2022-12-22T17:15:17;11.60;95.70
6948;DHT22;3513;47.664;9.162;2022-12-22T17:17:44;11.60;95.70
6948;DHT22;3513;47.664;9.162;2022-12-22T17:20:17;11.60;95.60
6948;DHT22;3513;47.664;9.162;2022-12-22T17:22:51;11.70;95.80
6948;DHT22;3513;47.664;9.162;2022-12-22T17:25:25;11.70;95.70
6948;DHT22;3513;47.664;9.162;2022-12-22T17:27:51;11.70;95.70
6948;DHT22;3513;47.664;9.162;2022-12-22T17:30:23;11.70;95.70
6948;DHT22;3513;47.664;9.162;2022-12-22T17:32:49;11.70;95.70
6948;DHT22;3513;47.664;9.162;2022-12-22T17:35:23;11.70;95.90
6948;DHT22;3513;47.664;9.162;2022-12-22T17:37:50;11.70;96.00
6948;DHT22;3513;47.664;9.162;2022-12-22T17:40:27;11.70;95.80
6948;DHT22;3513;47.664;9.162;2022-12-22T17:42:56;11.70;95.90
6948;DHT22;3513;47.664;9.162;2022-12-22T17:45:25;11.80;96.00
6948;DHT22;3513;47.664;9.162;2022-12-22T17:47:51;11.70;96.00
6948;DHT22;3513;47.664;9.162;2022-12-22T17:50:19;12.40;96.30
6948;DHT22;3513;47.664;9.162;2022-12-22T17:52:46;11.60;96.00
6948;DHT22;3513;47.664;9.162;2022-12-22T17:55:24;11.70;96.20
6948;DHT22;3513;47.664;9.162;2022-12-22T17:57:51;11.60;96.10
6948;DHT22;3513;47.664;9.162;2022-12-22T18:02:46;11.60;96.50
6948;DHT22;3513;47.664;9.162;2022-12-22T18:05:13;11.50;96.60
6948;DHT22;3513;47.664;9.162;2022-12-22T18:07:39;11.50;96.60
6948;DHT22;3513;47.664;9.162;2022-12-22T18:10:06;11.50;96.60
6948;DHT22;3513;47.664;9.162;2022-12-22T18:12:32;11.50;96.80
6948;DHT22;3513;47.664;9.162;2022-12-22T18:14:58;11.50;96.90
6948;DHT22;3513;47.664;9.162;2022-12-22T18:19:51;11.40;97.10
6948;DHT22;3513;47.664;9.162;2022-12-22T18:22:19;11.40;97.20
6948;DHT22;3513;47.664;9.162;2022-12-22T18:24:47;11.40;97.40
6948;DHT22;3513;47.664;9.162;2022-12-22T18:27:14;11.40;97.60
6948;DHT22;3513;47.664;9.162;2022-12-22T18:29:40;11.30;97.60
6948;DHT22;3513;47.664;9.162;2022-12-22T18:32:06;11.30;97.90
6948;DHT22;3513;47.664;9.162;2022-12-22T18:34:37;11.20;97.90
6948;DHT22;3513;47.664;9.162;2022-12-22T18:37:05;11.30;97.90
6948;DHT22;3513;47.664;9.162;2022-12-22T18:39:33;11.30;97.80
6948;DHT22;3513;47.664;9.162;2022-12-22T18:41:59;11.30;97.90
6948;DHT22;3513;47.664;9.162;2022-12-22T18:44:25;11.30;97.90
6948;DHT22;3513;47.664;9.162;2022-12-22T18:46:50;11.30;97.90